sensor_id;sensor_type;location;lat;lon;timestamp;P1;durP1;ratioP1;P2;durP2;ratioP2
54993;SDS011;40891;47.242;8.648;2024-03-06T00:02:05;0.30;;;0.30;;
54993;SDS011;40891;47.242;8.648;2024-03-06T00:04:31;0.27;;;0.27;;
54993;SDS011;40891;47.242;8.648;2024-03-06T00:06:56;0.40;;;0.40;;
54993;SDS011;40891;47.242;8.648;2024-03-06T00:09:22;1.70;;;0.43;;
54993;SDS011;40891;47.242;8.648;2024-03-06T00:11:48;0.30;;;0.30;;
54993;SDS011;40891;47.242;8.648;2024-03-06T00:14:15;0.30;;;0.30;;
54993;SDS011;40891;47.242;8.648;2024-03-06T00:16:42;0.43;;;0.30;;
54993;SDS011;40891;47.242;8.648;2024-03-06T00:19:08;0.33;;;0.33;;
54993;SDS011;40891;47.242;8.648;2024-03-06T00:21:33;0.30;;;0.30;;
54993;SDS011;40891;47.242;8.648;2024-03-06T00:23:58;0.30;;;0.30;;
54993;SDS011;40891;47.242;8.648;2024-03-06T00:26:24;0.30;;;0.23;;
54993;SDS011;40891;47.242;8.648;2024-03-06T00:28:49;0.20;;;0.20;;
54993;SDS011;40891;47.242;8.648;2024-03-06T00:31:14;0.30;;;0.30;;
54993;SDS011;40891;47.242;8.648;2024-03-06T00:33:40;0.30;;;0.30;;
54993;SDS011;40891;47.242;8.648;2024-03-06T00:36:05;0.30;;;0.30;;
54993;SDS011;40891;47.242;8.648;2024-03-06T00:38:31;0.30;;;0.30;;
54993;SDS011;40891;47.242;8.648;2024-03-06T00:40:56;0.90;;;0.37;;
54993;SDS011;40891;47.242;8.648;2024-03-06T00:43:22;0.37;;;0.30;;
54993;SDS011;40891;47.242;8.648;2024-03-06T00:45:48;0.40;;;0.40;;
54993;SDS011;40891;47.242;8.648;2024-03-06T00:48:13;0.50;;;0.50;;
54993;SDS011;40891;47.242;8.648;2024-03-06T00:50:39;2.20;;;0.50;;
54993;SDS011;40891;47.242;8.648;2024-03-06T00:53:05;0.50;;;0.50;;
54993;SDS011;40891;47.242;8.648;2024-03-06T00:55:31;0.60;;;0.60;;
54993;SDS011;40891;47.242;8.648;2024-03-06T00:57:56;0.70;;;0.70;;
54993;SDS011;40891;47.242;8.648;2024-03-06T01:00:22;0.57;;;0.57;;
54993;SDS011;40891;47.242;8.648;2024-03-06T01:02:47;0.37;;;0.37;;
54993;SDS011;40891;47.242;8.648;2024-03-06T01:05:12;0.90;;;0.60;;
54993;SDS011;40891;47.242;8.648;2024-03-06T01:07:38;0.60;;;0.60;;
54993;SDS011;40891;47.242;8.648;2024-03-06T01:10:04;0.60;;;0.60;;
54993;SDS011;40891;47.242;8.648;2024-03-06T01:12:31;0.70;;;0.70;;
54993;SDS011;40891;47.242;8.648;2024-03-06T01:14:57;0.70;;;0.60;;
54993;SDS011;40891;47.242;8.648;2024-03-06T01:17:22;0.57;;;0.57;;
54993;SDS011;40891;47.242;8.648;2024-03-06T01:19:47;0.60;;;0.50;;
54993;SDS011;40891;47.242;8.648;2024-03-06T01:22:13;0.90;;;0.67;;
54993;SDS011;40891;47.242;8.648;2024-03-06T01:24:38;1.00;;;0.80;;
54993;SDS011;40891;47.242;8.648;2024-03-06T01:27:04;0.70;;;0.70;;
54993;SDS011;40891;47.242;8.648;2024-03-06T01:29:29;2.03;;;0.67;;
54993;SDS011;40891;47.242;8.648;2024-03-06T01:31:54;0.70;;;0.70;;
54993;SDS011;40891;47.242;8.648;2024-03-06T01:34:20;1.80;;;1.17;;
54993;SDS011;40891;47.242;8.648;2024-03-06T01:36:45;3.30;;;1.60;;
54993;SDS011;40891;47.242;8.648;2024-03-06T01:39:11;3.17;;;1.40;;
54993;SDS011;40891;47.242;8.648;2024-03-06T01:41:36;2.60;;;1.27;;
54993;SDS011;40891;47.242;8.648;2024-03-06T01:44:02;1.43;;;0.73;;
54993;SDS011;40891;47.242;8.648;2024-03-06T01:46:28;0.70;;;0.60;;
54993;SDS011;40891;47.242;8.648;2024-03-06T01:48:54;1.10;;;0.50;;
54993;SDS011;40891;47.242;8.648;2024-03-06T01:51:19;0.30;;;0.30;;
54993;SDS011;40891;47.242;8.648;2024-03-06T01:53:44;0.40;;;0.40;;
54993;SDS011;40891;47.242;8.648;2024-03-06T01:56:10;0.30;;;0.30;;
54993;SDS011;40891;47.242;8.648;2024-03-06T01:58:37;0.40;;;0.40;;
54993;SDS011;40891;47.242;8.648;2024-03-06T02:01:04;0.30;;;0.30;;
54993;SDS011;40891;47.242;8.648;2024-03-06T02:03:31;0.57;;;0.40;;
54993;SDS011;40891;47.242;8.648;2024-03-06T02:05:57;0.60;;;0.50;;
54993;SDS011;40891;47.242;8.648;2024-03-06T02:08:25;0.40;;;0.40;;
54993;SDS011;40891;47.242;8.648;2024-03-06T02:10:50;0.70;;;0.50;;
54993;SDS011;40891;47.242;8.648;2024-03-06T02:13:16;0.40;;;0.40;;
54993;SDS011;40891;47.242;8.648;2024-03-06T02:15:44;0.40;;;0.40;;
54993;SDS011;40891;47.242;8.648;2024-03-06T02:18:10;0.77;;;0.30;;
54993;SDS011;40891;47.242;8.648;2024-03-06T02:20:37;0.30;;;0.30;;
54993;SDS011;40891;47.242;8.648;2024-03-06T02:23:04;0.43;;;0.40;;
54993;SDS011;40891;47.242;8.648;2024-03-06T02:25:29;0.30;;;0.30;;
54993;SDS011;40891;47.242;8.648;2024-03-06T02:27:54;0.73;;;0.30;;
54993;SDS011;40891;47.242;8.648;2024-03-06T02:30:20;0.40;;;0.40;;
54993;SDS011;40891;47.242;8.648;2024-03-06T02:32:48;0.40;;;0.40;;
54993;SDS011;40891;47.242;8.648;2024-03-06T02:35:13;0.40;;;0.40;;
54993;SDS011;40891;47.242;8.648;2024-03-06T02:37:38;0.50;;;0.40;;
54993;SDS011;40891;47.242;8.648;2024-03-06T02:40:06;0.90;;;0.40;;
54993;SDS011;40891;47.242;8.648;2024-03-06T02:42:34;0.30;;;0.30;;
54993;SDS011;40891;47.242;8.648;2024-03-06T02:45:00;0.30;;;0.30;;
54993;SDS011;40891;47.242;8.648;2024-03-06T02:47:25;0.50;;;0.40;;
54993;SDS011;40891;47.242;8.648;2024-03-06T02:49:50;0.33;;;0.33;;
54993;SDS011;40891;47.242;8.648;2024-03-06T02:52:16;0.40;;;0.40;;
54993;SDS011;40891;47.242;8.648;2024-03-06T02:54:42;0.30;;;0.30;;
54993;SDS011;40891;47.242;8.648;2024-03-06T02:57:07;0.20;;;0.20;;
54993;SDS011;40891;47.242;8.648;2024-03-06T02:59:33;0.20;;;0.20;;
54993;SDS011;40891;47.242;8.648;2024-03-06T03:01:58;0.40;;;0.20;;
54993;SDS011;40891;47.242;8.648;2024-03-06T03:04:23;0.30;;;0.30;;
54993;SDS011;40891;47.242;8.648;2024-03-06T03:06:49;0.40;;;0.40;;
54993;SDS011;40891;47.242;8.648;2024-03-06T03:09:14;0.30;;;0.30;;
54993;SDS011;40891;47.242;8.648;2024-03-06T03:11:39;0.13;;;0.13;;
54993;SDS011;40891;47.242;8.648;2024-03-06T03:14:06;0.20;;;0.20;;
54993;SDS011;40891;47.242;8.648;2024-03-06T03:16:32;0.23;;;0.23;;
54993;SDS011;40891;47.242;8.648;2024-03-06T03:18:57;0.57;;;0.30;;
54993;SDS011;40891;47.242;8.648;2024-03-06T03:21:23;0.30;;;0.30;;
54993;SDS011;40891;47.242;8.648;2024-03-06T03:23:48;0.30;;;0.30;;
54993;SDS011;40891;47.242;8.648;2024-03-06T03:26:14;0.20;;;0.20;;
54993;SDS011;40891;47.242;8.648;2024-03-06T03:28:40;0.30;;;0.30;;
54993;SDS011;40891;47.242;8.648;2024-03-06T03:31:06;0.30;;;0.30;;
54993;SDS011;40891;47.242;8.648;2024-03-06T03:33:33;0.20;;;0.20;;
54993;SDS011;40891;47.242;8.648;2024-03-06T03:35:59;1.60;;;0.30;;
54993;SDS011;40891;47.242;8.648;2024-03-06T03:38:24;0.43;;;0.33;;
54993;SDS011;40891;47.242;8.648;2024-03-06T03:40:50;0.87;;;0.47;;
54993;SDS011;40891;47.242;8.648;2024-03-06T03:43:15;0.40;;;0.40;;
54993;SDS011;40891;47.242;8.648;2024-03-06T03:45:41;0.30;;;0.30;;
54993;SDS011;40891;47.242;8.648;2024-03-06T03:48:06;7.73;;;1.90;;
54993;SDS011;40891;47.242;8.648;2024-03-06T03:50:31;6.60;;;2.80;;
54993;SDS011;40891;47.242;8.648;2024-03-06T03:52:57;4.83;;;4.20;;
54993;SDS011;40891;47.242;8.648;2024-03-06T03:55:25;1.13;;;1.03;;
54993;SDS011;40891;47.242;8.648;2024-03-06T03:57:51;3.90;;;3.50;;
54993;SDS011;40891;47.242;8.648;2024-03-06T04:00:17;3.60;;;3.30;;
54993;SDS011;40891;47.242;8.648;2024-03-06T04:02:43;12.43;;;10.10;;
54993;SDS011;40891;47.242;8.648;2024-03-06T04:05:08;7.90;;;7.10;;
54993;SDS011;40891;47.242;8.648;2024-03-06T04:07:35;1.50;;;1.40;;
54993;SDS011;40891;47.242;8.648;2024-03-06T04:10:00;2.90;;;2.60;;
54993;SDS011;40891;47.242;8.648;2024-03-06T04:12:26;1.17;;;0.93;;
54993;SDS011;40891;47.242;8.648;2024-03-06T04:14:51;0.47;;;0.40;;
54993;SDS011;40891;47.242;8.648;2024-03-06T04:17:17;0.50;;;0.50;;
54993;SDS011;40891;47.242;8.648;2024-03-06T04:19:42;0.40;;;0.30;;
54993;SDS011;40891;47.242;8.648;2024-03-06T04:22:07;0.33;;;0.33;;
54993;SDS011;40891;47.242;8.648;2024-03-06T04:24:33;0.40;;;0.40;;
54993;SDS011;40891;47.242;8.648;2024-03-06T04:26:58;0.50;;;0.40;;
54993;SDS011;40891;47.242;8.648;2024-03-06T04:29:23;0.50;;;0.40;;
54993;SDS011;40891;47.242;8.648;2024-03-06T04:31:49;0.37;;;0.30;;
54993;SDS011;40891;47.242;8.648;2024-03-06T04:34:14;0.40;;;0.40;;
54993;SDS011;40891;47.242;8.648;2024-03-06T04:36:39;0.50;;;0.40;;
54993;SDS011;40891;47.242;8.648;2024-03-06T04:39:04;0.73;;;0.50;;
54993;SDS011;40891;47.242;8.648;2024-03-06T04:41:32;0.70;;;0.60;;
54993;SDS011;40891;47.242;8.648;2024-03-06T04:44:00;0.87;;;0.50;;
54993;SDS011;40891;47.242;8.648;2024-03-06T04:46:26;0.50;;;0.47;;
54993;SDS011;40891;47.242;8.648;2024-03-06T04:48:51;0.53;;;0.43;;
54993;SDS011;40891;47.242;8.648;2024-03-06T04:51:17;0.40;;;0.40;;
54993;SDS011;40891;47.242;8.648;2024-03-06T04:53:44;0.50;;;0.50;;
54993;SDS011;40891;47.242;8.648;2024-03-06T04:56:10;0.37;;;0.37;;
54993;SDS011;40891;47.242;8.648;2024-03-06T04:58:35;0.53;;;0.50;;
54993;SDS011;40891;47.242;8.648;2024-03-06T05:01:00;1.37;;;0.63;;
54993;SDS011;40891;47.242;8.648;2024-03-06T05:03:26;0.50;;;0.50;;
54993;SDS011;40891;47.242;8.648;2024-03-06T05:05:51;0.67;;;0.60;;
54993;SDS011;40891;47.242;8.648;2024-03-06T05:08:16;0.70;;;0.57;;
54993;SDS011;40891;47.242;8.648;2024-03-06T05:10:41;1.33;;;1.07;;
54993;SDS011;40891;47.242;8.648;2024-03-06T05:13:07;2.03;;;0.70;;
54993;SDS011;40891;47.242;8.648;2024-03-06T05:15:32;0.40;;;0.40;;
54993;SDS011;40891;47.242;8.648;2024-03-06T05:17:58;1.00;;;0.77;;
54993;SDS011;40891;47.242;8.648;2024-03-06T05:20:23;1.13;;;0.80;;
54993;SDS011;40891;47.242;8.648;2024-03-06T05:22:48;1.30;;;0.80;;
54993;SDS011;40891;47.242;8.648;2024-03-06T05:25:14;0.90;;;0.80;;
54993;SDS011;40891;47.242;8.648;2024-03-06T05:27:39;0.90;;;0.70;;
54993;SDS011;40891;47.242;8.648;2024-03-06T05:30:05;1.30;;;0.87;;
54993;SDS011;40891;47.242;8.648;2024-03-06T05:32:30;1.30;;;0.80;;
54993;SDS011;40891;47.242;8.648;2024-03-06T05:34:56;1.20;;;1.10;;
54993;SDS011;40891;47.242;8.648;2024-03-06T05:37:23;1.50;;;1.13;;
54993;SDS011;40891;47.242;8.648;2024-03-06T05:39:48;1.43;;;1.17;;
54993;SDS011;40891;47.242;8.648;2024-03-06T05:42:13;2.17;;;1.40;;
54993;SDS011;40891;47.242;8.648;2024-03-06T05:44:38;1.30;;;1.10;;
54993;SDS011;40891;47.242;8.648;2024-03-06T05:47:04;1.40;;;1.30;;
54993;SDS011;40891;47.242;8.648;2024-03-06T05:49:30;1.60;;;1.20;;
54993;SDS011;40891;47.242;8.648;2024-03-06T05:51:57;2.30;;;1.57;;
54993;SDS011;40891;47.242;8.648;2024-03-06T05:54:23;1.57;;;1.40;;
54993;SDS011;40891;47.242;8.648;2024-03-06T05:56:48;3.00;;;1.50;;
54993;SDS011;40891;47.242;8.648;2024-03-06T05:59:15;2.10;;;1.67;;
54993;SDS011;40891;47.242;8.648;2024-03-06T06:01:40;1.80;;;1.50;;
54993;SDS011;40891;47.242;8.648;2024-03-06T06:04:07;2.33;;;1.80;;
54993;SDS011;40891;47.242;8.648;2024-03-06T06:06:34;1.40;;;1.30;;
54993;SDS011;40891;47.242;8.648;2024-03-06T06:08:59;1.83;;;1.50;;
54993;SDS011;40891;47.242;8.648;2024-03-06T06:11:25;1.97;;;1.70;;
54993;SDS011;40891;47.242;8.648;2024-03-06T06:13:50;1.87;;;1.60;;
54993;SDS011;40891;47.242;8.648;2024-03-06T06:16:15;2.07;;;1.60;;
54993;SDS011;40891;47.242;8.648;2024-03-06T06:18:41;2.40;;;1.80;;
54993;SDS011;40891;47.242;8.648;2024-03-06T06:21:07;3.30;;;1.90;;
54993;SDS011;40891;47.242;8.648;2024-03-06T06:23:33;1.87;;;1.67;;
54993;SDS011;40891;47.242;8.648;2024-03-06T06:25:58;3.07;;;1.90;;
54993;SDS011;40891;47.242;8.648;2024-03-06T06:28:24;3.77;;;1.73;;
54993;SDS011;40891;47.242;8.648;2024-03-06T06:30:49;4.13;;;1.53;;
54993;SDS011;40891;47.242;8.648;2024-03-06T06:33:17;3.07;;;1.50;;
54993;SDS011;40891;47.242;8.648;2024-03-06T06:35:43;2.27;;;1.80;;
54993;SDS011;40891;47.242;8.648;2024-03-06T06:38:09;4.27;;;1.90;;
54993;SDS011;40891;47.242;8.648;2024-03-06T06:40:34;4.17;;;1.73;;
54993;SDS011;40891;47.242;8.648;2024-03-06T06:43:01;2.27;;;1.60;;
54993;SDS011;40891;47.242;8.648;2024-03-06T06:45:26;2.00;;;1.30;;
54993;SDS011;40891;47.242;8.648;2024-03-06T06:47:51;1.13;;;1.00;;
54993;SDS011;40891;47.242;8.648;2024-03-06T06:50:17;1.70;;;1.20;;
54993;SDS011;40891;47.242;8.648;2024-03-06T06:52:43;2.70;;;1.10;;
54993;SDS011;40891;47.242;8.648;2024-03-06T06:55:09;1.87;;;1.23;;
54993;SDS011;40891;47.242;8.648;2024-03-06T06:57:36;1.60;;;1.20;;
54993;SDS011;40891;47.242;8.648;2024-03-06T07:00:02;1.80;;;1.27;;
54993;SDS011;40891;47.242;8.648;2024-03-06T07:02:35;2.77;;;1.60;;
54993;SDS011;40891;47.242;8.648;2024-03-06T07:05:08;1.97;;;1.10;;
54993;SDS011;40891;47.242;8.648;2024-03-06T07:07:34;3.47;;;1.90;;
54993;SDS011;40891;47.242;8.648;2024-03-06T07:09:59;2.10;;;1.20;;
54993;SDS011;40891;47.242;8.648;2024-03-06T07:12:25;1.30;;;1.20;;
54993;SDS011;40891;47.242;8.648;2024-03-06T07:14:50;2.87;;;2.00;;
54993;SDS011;40891;47.242;8.648;2024-03-06T07:17:16;1.50;;;1.10;;
54993;SDS011;40891;47.242;8.648;2024-03-06T07:19:41;2.40;;;0.97;;
54993;SDS011;40891;47.242;8.648;2024-03-06T07:22:06;1.67;;;1.17;;
54993;SDS011;40891;47.242;8.648;2024-03-06T07:24:31;1.57;;;1.30;;
54993;SDS011;40891;47.242;8.648;2024-03-06T07:26:57;1.20;;;0.80;;
54993;SDS011;40891;47.242;8.648;2024-03-06T07:29:22;0.73;;;0.73;;
54993;SDS011;40891;47.242;8.648;2024-03-06T07:31:47;0.97;;;0.77;;
54993;SDS011;40891;47.242;8.648;2024-03-06T07:34:13;0.70;;;0.70;;
54993;SDS011;40891;47.242;8.648;2024-03-06T07:36:39;1.10;;;0.70;;
54993;SDS011;40891;47.242;8.648;2024-03-06T07:39:05;1.07;;;0.90;;
54993;SDS011;40891;47.242;8.648;2024-03-06T07:41:30;1.60;;;0.93;;
54993;SDS011;40891;47.242;8.648;2024-03-06T07:43:57;1.47;;;1.00;;
54993;SDS011;40891;47.242;8.648;2024-03-06T07:46:23;2.13;;;1.70;;
54993;SDS011;40891;47.242;8.648;2024-03-06T07:48:48;2.20;;;1.33;;
54993;SDS011;40891;47.242;8.648;2024-03-06T07:51:14;1.80;;;1.10;;
54993;SDS011;40891;47.242;8.648;2024-03-06T07:53:39;1.17;;;0.97;;
54993;SDS011;40891;47.242;8.648;2024-03-06T07:56:04;1.30;;;1.00;;
54993;SDS011;40891;47.242;8.648;2024-03-06T07:58:30;0.97;;;0.70;;
54993;SDS011;40891;47.242;8.648;2024-03-06T08:00:56;1.87;;;0.80;;
54993;SDS011;40891;47.242;8.648;2024-03-06T08:03:22;2.57;;;0.80;;
54993;SDS011;40891;47.242;8.648;2024-03-06T08:05:51;2.20;;;0.63;;
54993;SDS011;40891;47.242;8.648;2024-03-06T08:08:20;3.43;;;1.20;;
54993;SDS011;40891;47.242;8.648;2024-03-06T08:10:45;1.50;;;1.40;;
54993;SDS011;40891;47.242;8.648;2024-03-06T08:13:11;0.70;;;0.63;;
54993;SDS011;40891;47.242;8.648;2024-03-06T08:15:36;1.17;;;0.73;;
54993;SDS011;40891;47.242;8.648;2024-03-06T08:18:02;1.00;;;0.90;;
54993;SDS011;40891;47.242;8.648;2024-03-06T08:20:28;1.20;;;1.10;;
54993;SDS011;40891;47.242;8.648;2024-03-06T08:22:54;0.87;;;0.70;;
54993;SDS011;40891;47.242;8.648;2024-03-06T08:25:21;1.20;;;0.80;;
54993;SDS011;40891;47.242;8.648;2024-03-06T08:27:47;3.50;;;1.20;;
54993;SDS011;40891;47.242;8.648;2024-03-06T08:30:13;0.80;;;0.70;;
54993;SDS011;40891;47.242;8.648;2024-03-06T08:32:38;0.93;;;0.70;;
54993;SDS011;40891;47.242;8.648;2024-03-06T08:35:04;0.97;;;0.80;;
54993;SDS011;40891;47.242;8.648;2024-03-06T08:37:34;1.20;;;0.90;;
54993;SDS011;40891;47.242;8.648;2024-03-06T08:40:00;0.80;;;0.70;;
54993;SDS011;40891;47.242;8.648;2024-03-06T08:42:26;1.00;;;0.90;;
54993;SDS011;40891;47.242;8.648;2024-03-06T08:44:52;0.70;;;0.60;;
54993;SDS011;40891;47.242;8.648;2024-03-06T08:47:18;1.63;;;0.90;;
54993;SDS011;40891;47.242;8.648;2024-03-06T08:49:43;2.00;;;1.00;;
54993;SDS011;40891;47.242;8.648;2024-03-06T08:52:09;1.63;;;0.73;;
54993;SDS011;40891;47.242;8.648;2024-03-06T08:54:35;1.00;;;0.90;;
54993;SDS011;40891;47.242;8.648;2024-03-06T08:57:01;1.00;;;0.90;;
54993;SDS011;40891;47.242;8.648;2024-03-06T08:59:27;1.00;;;0.80;;
54993;SDS011;40891;47.242;8.648;2024-03-06T09:01:53;1.10;;;0.90;;
54993;SDS011;40891;47.242;8.648;2024-03-06T09:04:19;1.30;;;1.07;;
54993;SDS011;40891;47.242;8.648;2024-03-06T09:06:44;2.03;;;1.10;;
54993;SDS011;40891;47.242;8.648;2024-03-06T09:09:10;1.33;;;1.07;;
54993;SDS011;40891;47.242;8.648;2024-03-06T09:11:35;1.80;;;1.63;;
54993;SDS011;40891;47.242;8.648;2024-03-06T09:14:00;4.87;;;2.23;;
54993;SDS011;40891;47.242;8.648;2024-03-06T09:16:26;2.50;;;2.10;;
54993;SDS011;40891;47.242;8.648;2024-03-06T09:18:51;2.93;;;2.00;;
54993;SDS011;40891;47.242;8.648;2024-03-06T09:21:17;4.03;;;2.60;;
54993;SDS011;40891;47.242;8.648;2024-03-06T09:23:43;3.30;;;2.50;;
54993;SDS011;40891;47.242;8.648;2024-03-06T09:26:08;3.63;;;2.37;;
54993;SDS011;40891;47.242;8.648;2024-03-06T09:28:33;4.30;;;2.63;;
54993;SDS011;40891;47.242;8.648;2024-03-06T09:30:59;3.70;;;2.40;;
54993;SDS011;40891;47.242;8.648;2024-03-06T09:33:25;2.97;;;2.13;;
54993;SDS011;40891;47.242;8.648;2024-03-06T09:35:50;2.50;;;2.10;;
54993;SDS011;40891;47.242;8.648;2024-03-06T09:38:15;3.23;;;2.27;;
54993;SDS011;40891;47.242;8.648;2024-03-06T09:40:41;2.90;;;2.20;;
54993;SDS011;40891;47.242;8.648;2024-03-06T09:43:07;2.73;;;2.20;;
54993;SDS011;40891;47.242;8.648;2024-03-06T09:45:32;3.73;;;2.50;;
54993;SDS011;40891;47.242;8.648;2024-03-06T09:47:58;3.83;;;2.40;;
54993;SDS011;40891;47.242;8.648;2024-03-06T09:50:24;4.10;;;2.97;;
54993;SDS011;40891;47.242;8.648;2024-03-06T09:52:51;3.77;;;2.77;;
54993;SDS011;40891;47.242;8.648;2024-03-06T09:55:18;2.70;;;2.17;;
54993;SDS011;40891;47.242;8.648;2024-03-06T09:57:45;2.50;;;1.87;;
54993;SDS011;40891;47.242;8.648;2024-03-06T10:00:10;3.17;;;2.20;;
54993;SDS011;40891;47.242;8.648;2024-03-06T10:02:39;3.10;;;2.20;;
54993;SDS011;40891;47.242;8.648;2024-03-06T10:05:21;3.17;;;2.53;;
54993;SDS011;40891;47.242;8.648;2024-03-06T10:07:47;2.87;;;1.90;;
54993;SDS011;40891;47.242;8.648;2024-03-06T10:10:12;2.63;;;1.93;;
54993;SDS011;40891;47.242;8.648;2024-03-06T10:12:38;3.07;;;2.20;;
54993;SDS011;40891;47.242;8.648;2024-03-06T10:15:04;3.30;;;2.37;;
54993;SDS011;40891;47.242;8.648;2024-03-06T10:17:29;3.80;;;2.33;;
54993;SDS011;40891;47.242;8.648;2024-03-06T10:19:55;2.97;;;2.00;;
54993;SDS011;40891;47.242;8.648;2024-03-06T10:22:22;2.40;;;2.20;;
54993;SDS011;40891;47.242;8.648;2024-03-06T10:24:49;4.33;;;2.87;;
54993;SDS011;40891;47.242;8.648;2024-03-06T10:27:17;2.50;;;1.90;;
54993;SDS011;40891;47.242;8.648;2024-03-06T10:29:43;2.50;;;2.20;;
54993;SDS011;40891;47.242;8.648;2024-03-06T10:32:08;2.47;;;1.80;;
54993;SDS011;40891;47.242;8.648;2024-03-06T10:34:35;3.20;;;2.50;;
54993;SDS011;40891;47.242;8.648;2024-03-06T10:37:03;2.20;;;1.60;;
54993;SDS011;40891;47.242;8.648;2024-03-06T10:39:30;1.30;;;1.00;;
54993;SDS011;40891;47.242;8.648;2024-03-06T10:41:59;1.73;;;1.13;;
54993;SDS011;40891;47.242;8.648;2024-03-06T10:44:27;3.47;;;1.30;;
54993;SDS011;40891;47.242;8.648;2024-03-06T10:47:00;0.73;;;0.73;;
54993;SDS011;40891;47.242;8.648;2024-03-06T10:49:27;1.80;;;1.00;;
54993;SDS011;40891;47.242;8.648;2024-03-06T10:54:28;1.43;;;0.87;;
54993;SDS011;40891;47.242;8.648;2024-03-06T10:56:55;0.90;;;0.87;;
54993;SDS011;40891;47.242;8.648;2024-03-06T10:59:20;1.33;;;0.90;;
54993;SDS011;40891;47.242;8.648;2024-03-06T11:01:46;0.70;;;0.70;;
54993;SDS011;40891;47.242;8.648;2024-03-06T11:04:12;0.70;;;0.70;;
54993;SDS011;40891;47.242;8.648;2024-03-06T11:06:38;2.60;;;1.00;;
54993;SDS011;40891;47.242;8.648;2024-03-06T11:09:04;3.93;;;0.80;;
54993;SDS011;40891;47.242;8.648;2024-03-06T11:11:31;3.03;;;1.00;;
54993;SDS011;40891;47.242;8.648;2024-03-06T11:14:00;1.20;;;0.97;;
54993;SDS011;40891;47.242;8.648;2024-03-06T11:16:32;1.03;;;0.80;;
54993;SDS011;40891;47.242;8.648;2024-03-06T11:19:17;1.10;;;0.90;;
54993;SDS011;40891;47.242;8.648;2024-03-06T11:21:46;1.50;;;1.00;;
54993;SDS011;40891;47.242;8.648;2024-03-06T11:24:14;1.10;;;0.80;;
54993;SDS011;40891;47.242;8.648;2024-03-06T11:26:42;1.53;;;1.03;;
54993;SDS011;40891;47.242;8.648;2024-03-06T11:29:08;1.20;;;1.10;;
54993;SDS011;40891;47.242;8.648;2024-03-06T11:31:33;2.87;;;1.13;;
54993;SDS011;40891;47.242;8.648;2024-03-06T11:34:02;2.00;;;1.40;;
54993;SDS011;40891;47.242;8.648;2024-03-06T11:36:29;1.10;;;1.00;;
54993;SDS011;40891;47.242;8.648;2024-03-06T11:39:05;1.10;;;1.00;;
54993;SDS011;40891;47.242;8.648;2024-03-06T11:41:52;0.80;;;0.80;;
54993;SDS011;40891;47.242;8.648;2024-03-06T11:44:18;1.47;;;1.10;;
54993;SDS011;40891;47.242;8.648;2024-03-06T11:49:23;1.30;;;1.20;;
54993;SDS011;40891;47.242;8.648;2024-03-06T11:51:50;1.13;;;1.03;;
54993;SDS011;40891;47.242;8.648;2024-03-06T11:54:20;1.10;;;1.00;;
54993;SDS011;40891;47.242;8.648;2024-03-06T11:56:49;1.33;;;0.93;;
54993;SDS011;40891;47.242;8.648;2024-03-06T11:59:16;1.30;;;0.93;;
54993;SDS011;40891;47.242;8.648;2024-03-06T12:01:42;1.20;;;1.00;;
54993;SDS011;40891;47.242;8.648;2024-03-06T12:04:07;1.20;;;1.00;;
54993;SDS011;40891;47.242;8.648;2024-03-06T12:06:33;3.37;;;1.20;;
54993;SDS011;40891;47.242;8.648;2024-03-06T12:08:59;1.33;;;1.10;;
54993;SDS011;40891;47.242;8.648;2024-03-06T12:11:24;2.47;;;1.17;;
54993;SDS011;40891;47.242;8.648;2024-03-06T12:13:53;1.87;;;0.60;;
54993;SDS011;40891;47.242;8.648;2024-03-06T12:16:20;1.93;;;1.40;;
54993;SDS011;40891;47.242;8.648;2024-03-06T12:18:46;3.00;;;1.83;;
54993;SDS011;40891;47.242;8.648;2024-03-06T12:21:11;1.67;;;0.80;;
54993;SDS011;40891;47.242;8.648;2024-03-06T12:23:38;1.90;;;0.80;;
54993;SDS011;40891;47.242;8.648;2024-03-06T12:26:08;0.70;;;0.60;;
54993;SDS011;40891;47.242;8.648;2024-03-06T12:28:36;1.30;;;0.80;;
54993;SDS011;40891;47.242;8.648;2024-03-06T12:31:05;1.03;;;0.90;;
54993;SDS011;40891;47.242;8.648;2024-03-06T12:33:32;0.80;;;0.80;;
54993;SDS011;40891;47.242;8.648;2024-03-06T12:36:05;0.67;;;0.67;;
54993;SDS011;40891;47.242;8.648;2024-03-06T12:38:32;0.80;;;0.70;;
54993;SDS011;40891;47.242;8.648;2024-03-06T12:40:58;1.60;;;1.00;;
54993;SDS011;40891;47.242;8.648;2024-03-06T12:43:25;0.70;;;0.70;;
54993;SDS011;40891;47.242;8.648;2024-03-06T12:45:51;0.73;;;0.60;;
54993;SDS011;40891;47.242;8.648;2024-03-06T12:48:19;1.13;;;0.90;;
54993;SDS011;40891;47.242;8.648;2024-03-06T12:50:45;1.17;;;1.00;;
54993;SDS011;40891;47.242;8.648;2024-03-06T12:53:16;1.33;;;0.80;;
54993;SDS011;40891;47.242;8.648;2024-03-06T12:55:41;1.13;;;0.90;;
54993;SDS011;40891;47.242;8.648;2024-03-06T12:58:10;1.10;;;0.90;;
54993;SDS011;40891;47.242;8.648;2024-03-06T13:00:36;1.70;;;0.60;;
54993;SDS011;40891;47.242;8.648;2024-03-06T13:03:01;1.33;;;1.00;;
54993;SDS011;40891;47.242;8.648;2024-03-06T13:05:26;0.70;;;0.70;;
54993;SDS011;40891;47.242;8.648;2024-03-06T13:07:51;1.00;;;0.80;;
54993;SDS011;40891;47.242;8.648;2024-03-06T13:10:17;1.00;;;0.70;;
54993;SDS011;40891;47.242;8.648;2024-03-06T13:12:42;1.60;;;0.93;;
54993;SDS011;40891;47.242;8.648;2024-03-06T13:15:07;1.30;;;0.93;;
54993;SDS011;40891;47.242;8.648;2024-03-06T13:17:33;0.97;;;0.93;;
54993;SDS011;40891;47.242;8.648;2024-03-06T13:19:59;1.10;;;0.77;;
54993;SDS011;40891;47.242;8.648;2024-03-06T13:22:24;1.20;;;1.00;;
54993;SDS011;40891;47.242;8.648;2024-03-06T13:24:50;3.70;;;1.83;;
54993;SDS011;40891;47.242;8.648;2024-03-06T13:27:16;1.63;;;0.93;;
54993;SDS011;40891;47.242;8.648;2024-03-06T13:29:41;3.67;;;0.90;;
54993;SDS011;40891;47.242;8.648;2024-03-06T13:32:07;1.10;;;1.00;;
54993;SDS011;40891;47.242;8.648;2024-03-06T13:34:32;0.80;;;0.80;;
54993;SDS011;40891;47.242;8.648;2024-03-06T13:36:58;3.87;;;0.90;;
54993;SDS011;40891;47.242;8.648;2024-03-06T13:39:24;1.20;;;1.10;;
54993;SDS011;40891;47.242;8.648;2024-03-06T13:41:49;1.23;;;0.97;;
54993;SDS011;40891;47.242;8.648;2024-03-06T13:44:14;1.40;;;1.10;;
54993;SDS011;40891;47.242;8.648;2024-03-06T13:46:39;1.10;;;0.97;;
54993;SDS011;40891;47.242;8.648;2024-03-06T13:49:05;1.00;;;0.90;;
54993;SDS011;40891;47.242;8.648;2024-03-06T13:51:30;2.57;;;1.03;;
54993;SDS011;40891;47.242;8.648;2024-03-06T13:53:56;4.10;;;1.43;;
54993;SDS011;40891;47.242;8.648;2024-03-06T13:56:21;1.33;;;1.13;;
54993;SDS011;40891;47.242;8.648;2024-03-06T13:58:46;1.77;;;1.20;;
54993;SDS011;40891;47.242;8.648;2024-03-06T14:01:12;1.33;;;1.23;;
54993;SDS011;40891;47.242;8.648;2024-03-06T14:03:37;2.73;;;1.37;;
54993;SDS011;40891;47.242;8.648;2024-03-06T14:06:04;1.20;;;1.00;;
54993;SDS011;40891;47.242;8.648;2024-03-06T14:08:32;2.53;;;1.40;;
54993;SDS011;40891;47.242;8.648;2024-03-06T14:10:57;1.20;;;1.10;;
54993;SDS011;40891;47.242;8.648;2024-03-06T14:13:22;1.90;;;1.50;;
54993;SDS011;40891;47.242;8.648;2024-03-06T14:15:48;2.30;;;1.67;;
54993;SDS011;40891;47.242;8.648;2024-03-06T14:18:14;1.53;;;1.20;;
54993;SDS011;40891;47.242;8.648;2024-03-06T14:20:39;2.07;;;1.63;;
54993;SDS011;40891;47.242;8.648;2024-03-06T14:23:05;2.60;;;1.30;;
54993;SDS011;40891;47.242;8.648;2024-03-06T14:25:30;23.97;;;9.93;;
54993;SDS011;40891;47.242;8.648;2024-03-06T14:27:59;4.90;;;2.77;;
54993;SDS011;40891;47.242;8.648;2024-03-06T14:30:26;4.17;;;2.90;;
54993;SDS011;40891;47.242;8.648;2024-03-06T14:32:52;3.07;;;2.37;;
54993;SDS011;40891;47.242;8.648;2024-03-06T14:35:18;2.30;;;1.80;;
54993;SDS011;40891;47.242;8.648;2024-03-06T14:37:43;2.27;;;2.07;;
54993;SDS011;40891;47.242;8.648;2024-03-06T14:40:09;2.13;;;1.93;;
54993;SDS011;40891;47.242;8.648;2024-03-06T14:42:35;2.37;;;1.93;;
54993;SDS011;40891;47.242;8.648;2024-03-06T14:45:00;2.07;;;1.90;;
54993;SDS011;40891;47.242;8.648;2024-03-06T14:47:26;3.20;;;2.20;;